sensor_id;sensor_type;location;lat;lon;timestamp;temperature;humidity
8002;DHT22;4046;48.774;8.732;2023-02-24T00:01:27;20.60;80.20
8002;DHT22;4046;48.774;8.732;2023-02-24T00:03:55;20.60;80.30
8002;DHT22;4046;48.774;8.732;2023-02-24T00:06:29;20.60;80.20
8002;DHT22;4046;48.774;8.732;2023-02-24T00:09:02;20.60;80.30
8002;DHT22;4046;48.774;8.732;2023-02-24T00:11:31;20.60;80.20
8002;DHT22;4046;48.774;8.732;2023-02-24T00:13:58;20.60;80.20
8002;DHT22;4046;48.774;8.732;2023-02-24T00:16:24;20.60;80.20
8002;DHT22;4046;48.774;8.732;2023-02-24T00:18:52;20.60;80.20
8002;DHT22;4046;48.774;8.732;2023-02-24T00:21:18;20.60;80.20
8002;DHT22;4046;48.774;8.732;2023-02-24T00:23:45;20.60;80.30
8002;DHT22;4046;48.774;8.732;2023-02-24T00:26:14;20.60;80.30
8002;DHT22;4046;48.774;8.732;2023-02-24T00:28:41;20.60;80.20
8002;DHT22;4046;48.774;8.732;2023-02-24T00:31:13;20.60;80.20
8002;DHT22;4046;48.774;8.732;2023-02-24T00:33:42;20.60;80.20
8002;DHT22;4046;48.774;8.732;2023-02-24T00:36:15;20.60;80.20
8002;DHT22;4046;48.774;8.732;2023-02-24T00:38:42;20.60;80.20
8002;DHT22;4046;48.774;8.732;2023-02-24T00:41:14;20.60;80.30
8002;DHT22;4046;48.774;8.732;2023-02-24T00:43:42;20.60;80.20
8002;DHT22;4046;48.774;8.732;2023-02-24T00:46:16;20.60;80.20
8002;DHT22;4046;48.774;8.732;2023-02-24T00:48:43;20.60;80.20
8002;DHT22;4046;48.774;8.732;2023-02-24T00:51:17;20.60;80.20
8002;DHT22;4046;48.774;8.732;2023-02-24T00:53:53;20.60;80.20
8002;DHT22;4046;48.774;8.732;2023-02-24T00:56:24;20.60;80.20
8002;DHT22;4046;48.774;8.732;2023-02-24T00:58:55;20.60;80.30
8002;DHT22;4046;48.774;8.732;2023-02-24T01:01:25;20.60;80.20
8002;DHT22;4046;48.774;8.732;2023-02-24T01:03:52;20.60;80.30
8002;DHT22;4046;48.774;8.732;2023-02-24T01:06:23;20.60;80.30
8002;DHT22;4046;48.774;8.732;2023-02-24T01:08:51;20.60;80.30
8002;DHT22;4046;48.774;8.732;2023-02-24T01:11:21;20.60;80.30
8002;DHT22;4046;48.774;8.732;2023-02-24T01:14:08;20.60;80.30
8002;DHT22;4046;48.774;8.732;2023-02-24T01:16:35;20.60;80.30
8002;DHT22;4046;48.774;8.732;2023-02-24T01:19:02;20.60;80.30
8002;DHT22;4046;48.774;8.732;2023-02-24T01:21:30;20.60;80.30
8002;DHT22;4046;48.774;8.732;2023-02-24T01:23:56;20.60;80.30
8002;DHT22;4046;48.774;8.732;2023-02-24T01:26:22;20.60;80.30
8002;DHT22;4046;48.774;8.732;2023-02-24T01:28:52;20.60;80.30
8002;DHT22;4046;48.774;8.732;2023-02-24T01:31:18;20.60;80.30
8002;DHT22;4046;48.774;8.732;2023-02-24T01:33:49;20.60;80.30
8002;DHT22;4046;48.774;8.732;2023-02-24T01:36:18;20.60;80.30
8002;DHT22;4046;48.774;8.732;2023-02-24T01:38:45;20.60;80.30
8002;DHT22;4046;48.774;8.732;2023-02-24T01:41:23;20.60;80.30
8002;DHT22;4046;48.774;8.732;2023-02-24T01:44:03;20.60;80.30
8002;DHT22;4046;48.774;8.732;2023-02-24T01:46:36;20.60;80.30
8002;DHT22;4046;48.774;8.732;2023-02-24T01:49:10;20.60;80.30
8002;DHT22;4046;48.774;8.732;2023-02-24T01:52:05;20.60;80.30
8002;DHT22;4046;48.774;8.732;2023-02-24T01:54:36;20.60;80.30
8002;DHT22;4046;48.774;8.732;2023-02-24T01:57:09;20.60;80.30
8002;DHT22;4046;48.774;8.732;2023-02-24T01:59:38;20.60;80.30
8002;DHT22;4046;48.774;8.732;2023-02-24T02:02:06;20.60;80.30
8002;DHT22;4046;48.774;8.732;2023-02-24T02:07:15;20.60;80.30
8002;DHT22;4046;48.774;8.732;2023-02-24T02:09:43;20.60;80.30
8002;DHT22;4046;48.774;8.732;2023-02-24T02:12:10;20.60;80.30
8002;DHT22;4046;48.774;8.732;2023-02-24T02:14:45;20.50;80.20
8002;DHT22;4046;48.774;8.732;2023-02-24T02:18:06;20.60;80.30
8002;DHT22;4046;48.774;8.732;2023-02-24T02:23:55;20.50;80.20
8002;DHT22;4046;48.774;8.732;2023-02-24T02:27:03;20.50;80.30
8002;DHT22;4046;48.774;8.732;2023-02-24T02:32:26;20.50;81.10
8002;DHT22;4046;48.774;8.732;2023-02-24T02:37:52;20.50;80.30
8002;DHT22;4046;48.774;8.732;2023-02-24T02:40:38;20.50;80.30
8002;DHT22;4046;48.774;8.732;2023-02-24T02:43:17;20.50;80.30
8002;DHT22;4046;48.774;8.732;2023-02-24T02:45:56;20.50;80.30
8002;DHT22;4046;48.774;8.732;2023-02-24T02:48:33;20.50;80.30
8002;DHT22;4046;48.774;8.732;2023-02-24T02:51:06;20.50;80.30
8002;DHT22;4046;48.774;8.732;2023-02-24T02:56:27;20.50;80.30
8002;DHT22;4046;48.774;8.732;2023-02-24T02:58:55;20.50;80.30
8002;DHT22;4046;48.774;8.732;2023-02-24T03:01:27;20.50;80.30
8002;DHT22;4046;48.774;8.732;2023-02-24T03:04:12;20.50;80.30
8002;DHT22;4046;48.774;8.732;2023-02-24T03:06:52;20.50;80.30
8002;DHT22;4046;48.774;8.732;2023-02-24T03:09:29;20.50;80.30
8002;DHT22;4046;48.774;8.732;2023-02-24T03:12:13;20.50;80.30
8002;DHT22;4046;48.774;8.732;2023-02-24T03:14:45;20.50;80.30
8002;DHT22;4046;48.774;8.732;2023-02-24T03:17:23;20.50;80.30
8002;DHT22;4046;48.774;8.732;2023-02-24T03:19:56;20.50;80.20
8002;DHT22;4046;48.774;8.732;2023-02-24T03:22:40;20.50;80.30
8002;DHT22;4046;48.774;8.732;2023-02-24T03:25:08;20.50;80.30
8002;DHT22;4046;48.774;8.732;2023-02-24T03:27:45;20.50;80.30
8002;DHT22;4046;48.774;8.732;2023-02-24T03:30:19;20.50;80.30
8002;DHT22;4046;48.774;8.732;2023-02-24T03:32:54;20.50;80.30
8002;DHT22;4046;48.774;8.732;2023-02-24T03:35:30;20.50;80.30
8002;DHT22;4046;48.774;8.732;2023-02-24T03:37:59;20.50;80.30
8002;DHT22;4046;48.774;8.732;2023-02-24T03:40:26;20.60;80.40
8002;DHT22;4046;48.774;8.732;2023-02-24T03:43:35;20.50;80.30
8002;DHT22;4046;48.774;8.732;2023-02-24T03:45:54;20.50;80.30
8002;DHT22;4046;48.774;8.732;2023-02-24T03:48:21;20.50;80.30
8002;DHT22;4046;48.774;8.732;2023-02-24T03:50:49;20.50;80.30
8002;DHT22;4046;48.774;8.732;2023-02-24T03:53:48;20.50;80.30
8002;DHT22;4046;48.774;8.732;2023-02-24T03:59:44;20.50;80.30
8002;DHT22;4046;48.774;8.732;2023-02-24T04:02:20;20.50;80.30
8002;DHT22;4046;48.774;8.732;2023-02-24T04:15:59;20.50;80.30
8002;DHT22;4046;48.774;8.732;2023-02-24T04:18:29;20.50;80.30
8002;DHT22;4046;48.774;8.732;2023-02-24T04:20:58;20.50;80.30
8002;DHT22;4046;48.774;8.732;2023-02-24T04:23:29;20.50;80.30
8002;DHT22;4046;48.774;8.732;2023-02-24T04:25:57;20.50;80.30
8002;DHT22;4046;48.774;8.732;2023-02-24T04:28:24;20.50;80.30
8002;DHT22;4046;48.774;8.732;2023-02-24T04:30:54;20.50;80.30
8002;DHT22;4046;48.774;8.732;2023-02-24T04:33:22;20.50;80.30
8002;DHT22;4046;48.774;8.732;2023-02-24T04:35:49;20.50;80.30
8002;DHT22;4046;48.774;8.732;2023-02-24T04:38:16;20.50;80.20
8002;DHT22;4046;48.774;8.732;2023-02-24T04:40:43;20.50;80.30
8002;DHT22;4046;48.774;8.732;2023-02-24T04:43:09;20.50;80.40
8002;DHT22;4046;48.774;8.732;2023-02-24T04:45:36;20.50;80.30
8002;DHT22;4046;48.774;8.732;2023-02-24T04:48:05;20.50;80.30
8002;DHT22;4046;48.774;8.732;2023-02-24T04:50:39;20.50;80.30
8002;DHT22;4046;48.774;8.732;2023-02-24T04:53:09;20.50;80.30
8002;DHT22;4046;48.774;8.732;2023-02-24T04:55:39;20.50;80.30
8002;DHT22;4046;48.774;8.732;2023-02-24T04:58:09;20.50;80.30
8002;DHT22;4046;48.774;8.732;2023-02-24T05:00:36;20.50;80.30
8002;DHT22;4046;48.774;8.732;2023-02-24T05:03:07;20.50;80.40
8002;DHT22;4046;48.774;8.732;2023-02-24T05:05:33;20.50;80.40
8002;DHT22;4046;48.774;8.732;2023-02-24T05:08:05;20.50;80.40
8002;DHT22;4046;48.774;8.732;2023-02-24T05:10:41;20.50;80.40
8002;DHT22;4046;48.774;8.732;2023-02-24T05:13:12;20.50;80.40
8002;DHT22;4046;48.774;8.732;2023-02-24T05:15:40;20.50;80.30
8002;DHT22;4046;48.774;8.732;2023-02-24T05:18:08;20.50;80.40
8002;DHT22;4046;48.774;8.732;2023-02-24T05:20:42;20.50;80.30
8002;DHT22;4046;48.774;8.732;2023-02-24T05:23:36;20.50;80.30
8002;DHT22;4046;48.774;8.732;2023-02-24T05:26:05;20.50;80.30
8002;DHT22;4046;48.774;8.732;2023-02-24T05:28:37;20.50;80.40
8002;DHT22;4046;48.774;8.732;2023-02-24T05:31:11;20.50;80.40
8002;DHT22;4046;48.774;8.732;2023-02-24T05:33:42;20.50;80.30
8002;DHT22;4046;48.774;8.732;2023-02-24T05:36:13;20.50;80.30
8002;DHT22;4046;48.774;8.732;2023-02-24T05:38:43;20.50;80.40
8002;DHT22;4046;48.774;8.732;2023-02-24T05:41:11;20.50;80.30
8002;DHT22;4046;48.774;8.732;2023-02-24T05:43:46;20.50;80.30
8002;DHT22;4046;48.774;8.732;2023-02-24T05:46:16;20.50;80.40
8002;DHT22;4046;48.774;8.732;2023-02-24T05:48:42;20.50;80.30
8002;DHT22;4046;48.774;8.732;2023-02-24T05:51:09;20.50;80.30
8002;DHT22;4046;48.774;8.732;2023-02-24T05:53:38;20.50;80.40
8002;DHT22;4046;48.774;8.732;2023-02-24T05:56:08;20.50;80.40
8002;DHT22;4046;48.774;8.732;2023-02-24T05:58:35;20.50;80.30
8002;DHT22;4046;48.774;8.732;2023-02-24T06:01:11;20.50;80.30
8002;DHT22;4046;48.774;8.732;2023-02-24T06:03:42;20.50;80.30
8002;DHT22;4046;48.774;8.732;2023-02-24T06:06:14;20.50;80.30
8002;DHT22;4046;48.774;8.732;2023-02-24T06:08:42;20.50;80.40
8002;DHT22;4046;48.774;8.732;2023-02-24T06:11:15;20.50;80.30
8002;DHT22;4046;48.774;8.732;2023-02-24T06:13:44;20.50;80.30
8002;DHT22;4046;48.774;8.732;2023-02-24T06:16:15;20.50;80.30
8002;DHT22;4046;48.774;8.732;2023-02-24T06:18:42;20.50;80.40
8002;DHT22;4046;48.774;8.732;2023-02-24T06:21:09;20.50;80.40
8002;DHT22;4046;48.774;8.732;2023-02-24T06:23:38;20.50;80.30
8002;DHT22;4046;48.774;8.732;2023-02-24T06:26:05;20.50;80.30
8002;DHT22;4046;48.774;8.732;2023-02-24T06:28:38;20.50;80.40
8002;DHT22;4046;48.774;8.732;2023-02-24T06:31:06;20.50;80.30
8002;DHT22;4046;48.774;8.732;2023-02-24T06:33:33;20.50;80.40
8002;DHT22;4046;48.774;8.732;2023-02-24T06:36:01;20.50;80.40
8002;DHT22;4046;48.774;8.732;2023-02-24T06:38:32;20.50;81.10
8002;DHT22;4046;48.774;8.732;2023-02-24T06:41:00;20.50;80.40
8002;DHT22;4046;48.774;8.732;2023-02-24T06:43:40;20.50;80.30
8002;DHT22;4046;48.774;8.732;2023-02-24T06:46:12;20.50;80.30
8002;DHT22;4046;48.774;8.732;2023-02-24T06:48:38;20.50;80.40
8002;DHT22;4046;48.774;8.732;2023-02-24T06:51:06;20.50;80.40
8002;DHT22;4046;48.774;8.732;2023-02-24T06:53:34;20.50;80.30
8002;DHT22;4046;48.774;8.732;2023-02-24T06:56:05;20.50;80.40
8002;DHT22;4046;48.774;8.732;2023-02-24T06:58:41;20.50;80.50
8002;DHT22;4046;48.774;8.732;2023-02-24T07:01:13;20.50;80.60
8002;DHT22;4046;48.774;8.732;2023-02-24T07:03:40;20.50;80.70
8002;DHT22;4046;48.774;8.732;2023-02-24T07:06:31;20.50;80.80
8002;DHT22;4046;48.774;8.732;2023-02-24T07:09:01;20.50;80.80
8002;DHT22;4046;48.774;8.732;2023-02-24T07:11:30;20.50;81.00
8002;DHT22;4046;48.774;8.732;2023-02-24T07:13:57;20.60;81.00
8002;DHT22;4046;48.774;8.732;2023-02-24T07:16:27;20.60;81.10
8002;DHT22;4046;48.774;8.732;2023-02-24T07:18:57;20.60;81.20
8002;DHT22;4046;48.774;8.732;2023-02-24T07:21:25;20.60;81.10
8002;DHT22;4046;48.774;8.732;2023-02-24T07:23:55;20.60;81.10
8002;DHT22;4046;48.774;8.732;2023-02-24T07:26:24;20.60;81.10
8002;DHT22;4046;48.774;8.732;2023-02-24T07:28:52;20.60;81.20
8002;DHT22;4046;48.774;8.732;2023-02-24T07:31:21;20.60;82.00
8002;DHT22;4046;48.774;8.732;2023-02-24T07:33:54;20.60;81.30
8002;DHT22;4046;48.774;8.732;2023-02-24T07:36:22;20.60;81.20
8002;DHT22;4046;48.774;8.732;2023-02-24T07:38:53;20.60;81.30
8002;DHT22;4046;48.774;8.732;2023-02-24T07:41:21;20.60;81.30
8002;DHT22;4046;48.774;8.732;2023-02-24T07:43:49;20.70;81.50
8002;DHT22;4046;48.774;8.732;2023-02-24T07:46:25;20.70;81.60
8002;DHT22;4046;48.774;8.732;2023-02-24T07:48:54;20.70;81.50
8002;DHT22;4046;48.774;8.732;2023-02-24T07:51:23;20.70;81.50
8002;DHT22;4046;48.774;8.732;2023-02-24T07:53:55;20.70;81.50
8002;DHT22;4046;48.774;8.732;2023-02-24T07:56:22;20.70;81.50
8002;DHT22;4046;48.774;8.732;2023-02-24T07:59:05;20.70;81.60
8002;DHT22;4046;48.774;8.732;2023-02-24T08:01:36;20.70;81.50
8002;DHT22;4046;48.774;8.732;2023-02-24T08:04:08;20.70;81.60
8002;DHT22;4046;48.774;8.732;2023-02-24T08:06:39;20.60;81.50
8002;DHT22;4046;48.774;8.732;2023-02-24T08:09:11;20.60;81.40
8002;DHT22;4046;48.774;8.732;2023-02-24T08:14:12;20.60;81.40
8002;DHT22;4046;48.774;8.732;2023-02-24T08:16:43;20.60;81.40
8002;DHT22;4046;48.774;8.732;2023-02-24T08:19:12;20.60;81.50
8002;DHT22;4046;48.774;8.732;2023-02-24T08:21:43;20.60;81.50
8002;DHT22;4046;48.774;8.732;2023-02-24T08:24:14;20.60;81.40
8002;DHT22;4046;48.774;8.732;2023-02-24T08:26:44;20.60;81.50
8002;DHT22;4046;48.774;8.732;2023-02-24T08:29:11;20.60;81.40
8002;DHT22;4046;48.774;8.732;2023-02-24T08:31:37;20.70;81.50
8002;DHT22;4046;48.774;8.732;2023-02-24T08:34:04;20.70;81.30
8002;DHT22;4046;48.774;8.732;2023-02-24T08:36:30;20.80;81.30
8002;DHT22;4046;48.774;8.732;2023-02-24T08:38:56;20.80;81.20
8002;DHT22;4046;48.774;8.732;2023-02-24T08:41:24;20.80;81.10
8002;DHT22;4046;48.774;8.732;2023-02-24T08:44:11;20.80;81.10
8002;DHT22;4046;48.774;8.732;2023-02-24T08:46:39;20.90;81.20
8002;DHT22;4046;48.774;8.732;2023-02-24T08:49:05;20.90;81.30
8002;DHT22;4046;48.774;8.732;2023-02-24T08:51:38;20.90;81.30
8002;DHT22;4046;48.774;8.732;2023-02-24T08:54:12;21.00;81.40
8002;DHT22;4046;48.774;8.732;2023-02-24T08:56:46;21.00;81.40
8002;DHT22;4046;48.774;8.732;2023-02-24T08:59:22;21.10;81.40
8002;DHT22;4046;48.774;8.732;2023-02-24T09:02:06;21.20;81.40
8002;DHT22;4046;48.774;8.732;2023-02-24T09:05:03;21.30;81.30
8002;DHT22;4046;48.774;8.732;2023-02-24T09:07:36;21.30;81.30
8002;DHT22;4046;48.774;8.732;2023-02-24T09:10:05;21.40;81.20
8002;DHT22;4046;48.774;8.732;2023-02-24T09:12:37;21.40;81.10
8002;DHT22;4046;48.774;8.732;2023-02-24T09:15:07;21.40;81.20
8002;DHT22;4046;48.774;8.732;2023-02-24T09:17:34;21.50;81.20
8002;DHT22;4046;48.774;8.732;2023-02-24T09:20:13;21.50;81.10
8002;DHT22;4046;48.774;8.732;2023-02-24T09:22:58;21.50;81.20
8002;DHT22;4046;48.774;8.732;2023-02-24T09:25:36;21.50;81.20
8002;DHT22;4046;48.774;8.732;2023-02-24T09:30:37;21.40;81.20
8002;DHT22;4046;48.774;8.732;2023-02-24T09:33:12;21.40;81.40
8002;DHT22;4046;48.774;8.732;2023-02-24T09:35:51;21.30;81.60
8002;DHT22;4046;48.774;8.732;2023-02-24T09:38:20;21.30;81.70
8002;DHT22;4046;48.774;8.732;2023-02-24T09:41:20;21.30;82.10
8002;DHT22;4046;48.774;8.732;2023-02-24T09:44:16;21.20;82.60
8002;DHT22;4046;48.774;8.732;2023-02-24T09:46:50;21.10;82.40
8002;DHT22;4046;48.774;8.732;2023-02-24T09:49:23;21.10;82.30
8002;DHT22;4046;48.774;8.732;2023-02-24T09:51:52;21.00;82.40
8002;DHT22;4046;48.774;8.732;2023-02-24T09:54:30;21.00;82.60
8002;DHT22;4046;48.774;8.732;2023-02-24T09:57:10;21.00;82.60
8002;DHT22;4046;48.774;8.732;2023-02-24T09:59:50;20.90;82.50
8002;DHT22;4046;48.774;8.732;2023-02-24T10:03:18;20.90;82.80
8002;DHT22;4046;48.774;8.732;2023-02-24T10:06:03;20.90;83.20
8002;DHT22;4046;48.774;8.732;2023-02-24T10:08:42;20.80;83.30
8002;DHT22;4046;48.774;8.732;2023-02-24T10:11:10;20.80;83.30
8002;DHT22;4046;48.774;8.732;2023-02-24T10:13:46;20.80;83.20
8002;DHT22;4046;48.774;8.732;2023-02-24T10:16:15;20.80;83.40
8002;DHT22;4046;48.774;8.732;2023-02-24T10:18:51;20.80;83.20
8002;DHT22;4046;48.774;8.732;2023-02-24T10:21:33;20.80;83.30
8002;DHT22;4046;48.774;8.732;2023-02-24T10:24:30;20.80;83.30
8002;DHT22;4046;48.774;8.732;2023-02-24T10:27:30;20.80;83.30
8002;DHT22;4046;48.774;8.732;2023-02-24T10:30:04;20.80;83.30
8002;DHT22;4046;48.774;8.732;2023-02-24T10:32:44;20.80;83.20
8002;DHT22;4046;48.774;8.732;2023-02-24T10:35:15;20.80;83.20
8002;DHT22;4046;48.774;8.732;2023-02-24T10:37:42;20.80;84.00
8002;DHT22;4046;48.774;8.732;2023-02-24T10:40:09;20.80;83.20
8002;DHT22;4046;48.774;8.732;2023-02-24T10:42:39;20.90;83.30
8002;DHT22;4046;48.774;8.732;2023-02-24T10:45:15;20.80;83.20
8002;DHT22;4046;48.774;8.732;2023-02-24T10:47:48;20.80;83.90
8002;DHT22;4046;48.774;8.732;2023-02-24T10:50:21;20.90;83.30
8002;DHT22;4046;48.774;8.732;2023-02-24T10:52:51;20.90;83.20
8002;DHT22;4046;48.774;8.732;2023-02-24T10:55:44;20.90;83.20
8002;DHT22;4046;48.774;8.732;2023-02-24T10:58:32;20.90;83.30
8002;DHT22;4046;48.774;8.732;2023-02-24T11:01:28;20.90;83.30
8002;DHT22;4046;48.774;8.732;2023-02-24T11:04:20;20.90;83.30
8002;DHT22;4046;48.774;8.732;2023-02-24T11:07:13;20.90;83.30
8002;DHT22;4046;48.774;8.732;2023-02-24T11:10:14;20.90;83.30
8002;DHT22;4046;48.774;8.732;2023-02-24T11:12:52;20.90;83.30
8002;DHT22;4046;48.774;8.732;2023-02-24T11:15:50;20.90;83.40
8002;DHT22;4046;48.774;8.732;2023-02-24T11:18:37;20.90;83.30
8002;DHT22;4046;48.774;8.732;2023-02-24T11:21:10;20.90;83.20
8002;DHT22;4046;48.774;8.732;2023-02-24T11:23:44;20.90;83.10
8002;DHT22;4046;48.774;8.732;2023-02-24T11:26:14;20.90;83.00
8002;DHT22;4046;48.774;8.732;2023-02-24T11:28:56;20.90;83.00
8002;DHT22;4046;48.774;8.732;2023-02-24T11:32:05;20.90;82.90
8002;DHT22;4046;48.774;8.732;2023-02-24T11:37:24;20.90;83.00
8002;DHT22;4046;48.774;8.732;2023-02-24T11:40:06;21.00;83.10
8002;DHT22;4046;48.774;8.732;2023-02-24T11:48:29;21.00;83.10
8002;DHT22;4046;48.774;8.732;2023-02-24T11:51:01;21.00;83.10
8002;DHT22;4046;48.774;8.732;2023-02-24T11:53:42;21.10;83.20
8002;DHT22;4046;48.774;8.732;2023-02-24T11:56:36;21.10;83.10
8002;DHT22;4046;48.774;8.732;2023-02-24T11:59:38;21.20;83.10
8002;DHT22;4046;48.774;8.732;2023-02-24T12:02:04;21.20;83.00
8002;DHT22;4046;48.774;8.732;2023-02-24T12:04:45;21.30;83.00
8002;DHT22;4046;48.774;8.732;2023-02-24T12:10:03;21.50;82.70
8002;DHT22;4046;48.774;8.732;2023-02-24T12:13:02;21.50;82.80
8002;DHT22;4046;48.774;8.732;2023-02-24T12:15:32;21.50;82.70
8002;DHT22;4046;48.774;8.732;2023-02-24T12:18:26;21.60;82.70
8002;DHT22;4046;48.774;8.732;2023-02-24T12:21:02;21.60;82.60
8002;DHT22;4046;48.774;8.732;2023-02-24T12:23:42;21.60;82.60
8002;DHT22;4046;48.774;8.732;2023-02-24T12:26:30;21.60;82.60
8002;DHT22;4046;48.774;8.732;2023-02-24T12:32:38;21.50;82.80
8002;DHT22;4046;48.774;8.732;2023-02-24T12:40:52;21.40;83.10
8002;DHT22;4046;48.774;8.732;2023-02-24T12:43:34;21.30;83.20
8002;DHT22;4046;48.774;8.732;2023-02-24T12:46:12;21.30;83.20
8002;DHT22;4046;48.774;8.732;2023-02-24T12:54:04;21.20;83.50
8002;DHT22;4046;48.774;8.732;2023-02-24T12:59:07;21.10;83.40
8002;DHT22;4046;48.774;8.732;2023-02-24T13:01:53;21.10;83.40
8002;DHT22;4046;48.774;8.732;2023-02-24T13:12:47;21.10;83.60
8002;DHT22;4046;48.774;8.732;2023-02-24T13:15:22;21.10;83.50
8002;DHT22;4046;48.774;8.732;2023-02-24T13:17:51;21.10;83.80
8002;DHT22;4046;48.774;8.732;2023-02-24T13:20:33;21.00;83.80
8002;DHT22;4046;48.774;8.732;2023-02-24T13:23:01;21.00;83.80
8002;DHT22;4046;48.774;8.732;2023-02-24T13:25:33;21.10;83.90
8002;DHT22;4046;48.774;8.732;2023-02-24T13:28:04;21.10;83.80
8002;DHT22;4046;48.774;8.732;2023-02-24T13:30:40;21.00;83.80
8002;DHT22;4046;48.774;8.732;2023-02-24T13:33:22;21.10;83.90
8002;DHT22;4046;48.774;8.732;2023-02-24T13:36:23;21.10;83.90
8002;DHT22;4046;48.774;8.732;2023-02-24T13:39:37;21.00;83.80
8002;DHT22;4046;48.774;8.732;2023-02-24T13:41:39;21.00;83.70
8002;DHT22;4046;48.774;8.732;2023-02-24T13:55:04;20.90;83.60
8002;DHT22;4046;48.774;8.732;2023-02-24T13:57:53;20.90;83.40
8002;DHT22;4046;48.774;8.732;2023-02-24T14:00:49;20.90;83.50
8002;DHT22;4046;48.774;8.732;2023-02-24T14:03:20;20.90;83.50
8002;DHT22;4046;48.774;8.732;2023-02-24T14:05:47;20.90;83.40
8002;DHT22;4046;48.774;8.732;2023-02-24T14:08:22;20.90;83.40
8002;DHT22;4046;48.774;8.732;2023-02-24T14:10:53;20.90;83.40
8002;DHT22;4046;48.774;8.732;2023-02-24T14:13:25;20.90;83.50
8002;DHT22;4046;48.774;8.732;2023-02-24T14:15:55;20.90;83.40
8002;DHT22;4046;48.774;8.732;2023-02-24T14:18:25;20.90;83.40
8002;DHT22;4046;48.774;8.732;2023-02-24T14:20:53;20.90;83.30
8002;DHT22;4046;48.774;8.732;2023-02-24T14:23:23;20.90;83.30
8002;DHT22;4046;48.774;8.732;2023-02-24T14:26:12;20.80;83.20
8002;DHT22;4046;48.774;8.732;2023-02-24T14:28:51;20.90;83.30
8002;DHT22;4046;48.774;8.732;2023-02-24T14:31:20;20.90;83.30
8002;DHT22;4046;48.774;8.732;2023-02-24T14:33:59;20.80;83.20
8002;DHT22;4046;48.774;8.732;2023-02-24T14:36:32;20.90;83.50
8002;DHT22;4046;48.774;8.732;2023-02-24T14:39:23;20.90;84.00
8002;DHT22;4046;48.774;8.732;2023-02-24T14:42:03;20.90;83.90
8002;DHT22;4046;48.774;8.732;2023-02-24T14:44:29;20.90;84.00
8002;DHT22;4046;48.774;8.732;2023-02-24T14:47:02;21.00;84.10
8002;DHT22;4046;48.774;8.732;2023-02-24T14:49:33;21.00;84.30
8002;DHT22;4046;48.774;8.732;2023-02-24T14:52:16;21.00;84.20
8002;DHT22;4046;48.774;8.732;2023-02-24T14:57:19;21.10;84.60
8002;DHT22;4046;48.774;8.732;2023-02-24T15:00:03;21.10;84.40
8002;DHT22;4046;48.774;8.732;2023-02-24T15:02:41;21.10;84.40
8002;DHT22;4046;48.774;8.732;2023-02-24T15:05:10;21.10;84.50
8002;DHT22;4046;48.774;8.732;2023-02-24T15:07:37;21.10;84.50
8002;DHT22;4046;48.774;8.732;2023-02-24T15:10:05;21.10;84.60
8002;DHT22;4046;48.774;8.732;2023-02-24T15:12:48;21.10;84.60
8002;DHT22;4046;48.774;8.732;2023-02-24T15:15:24;21.10;84.80
8002;DHT22;4046;48.774;8.732;2023-02-24T15:18:02;21.10;84.60
8002;DHT22;4046;48.774;8.732;2023-02-24T15:20:37;21.10;84.70
8002;DHT22;4046;48.774;8.732;2023-02-24T15:23:05;21.10;84.80
8002;DHT22;4046;48.774;8.732;2023-02-24T15:25:45;21.10;84.80
8002;DHT22;4046;48.774;8.732;2023-02-24T15:28:41;21.10;84.90
8002;DHT22;4046;48.774;8.732;2023-02-24T15:31:15;21.10;84.90
8002;DHT22;4046;48.774;8.732;2023-02-24T15:33:44;21.10;85.00
8002;DHT22;4046;48.774;8.732;2023-02-24T15:36:16;21.10;85.00
8002;DHT22;4046;48.774;8.732;2023-02-24T15:38:43;21.10;85.00
8002;DHT22;4046;48.774;8.732;2023-02-24T15:41:12;21.00;84.80
8002;DHT22;4046;48.774;8.732;2023-02-24T15:48:49;20.90;84.50
8002;DHT22;4046;48.774;8.732;2023-02-24T15:53:53;20.90;84.40
8002;DHT22;4046;48.774;8.732;2023-02-24T15:56:20;20.90;84.40
8002;DHT22;4046;48.774;8.732;2023-02-24T15:58:46;20.90;84.30
8002;DHT22;4046;48.774;8.732;2023-02-24T16:01:12;20.90;84.30
8002;DHT22;4046;48.774;8.732;2023-02-24T16:03:39;20.90;84.30
8002;DHT22;4046;48.774;8.732;2023-02-24T16:06:06;20.90;84.30
8002;DHT22;4046;48.774;8.732;2023-02-24T16:08:35;20.90;84.20
8002;DHT22;4046;48.774;8.732;2023-02-24T16:11:11;20.80;84.10
8002;DHT22;4046;48.774;8.732;2023-02-24T16:13:38;20.80;84.10
8002;DHT22;4046;48.774;8.732;2023-02-24T16:16:05;20.80;84.10
8002;DHT22;4046;48.774;8.732;2023-02-24T16:18:32;20.80;84.10
8002;DHT22;4046;48.774;8.732;2023-02-24T16:20:58;20.80;84.00
8002;DHT22;4046;48.774;8.732;2023-02-24T16:23:25;20.80;84.00
8002;DHT22;4046;48.774;8.732;2023-02-24T16:25:57;20.80;84.00
8002;DHT22;4046;48.774;8.732;2023-02-24T16:28:23;20.80;83.90
8002;DHT22;4046;48.774;8.732;2023-02-24T16:30:51;20.80;83.90
8002;DHT22;4046;48.774;8.732;2023-02-24T16:33:18;20.80;83.80
8002;DHT22;4046;48.774;8.732;2023-02-24T16:35:45;20.80;83.80
8002;DHT22;4046;48.774;8.732;2023-02-24T16:38:13;20.80;83.80
8002;DHT22;4046;48.774;8.732;2023-02-24T16:40:42;20.80;83.90
8002;DHT22;4046;48.774;8.732;2023-02-24T16:43:09;20.80;83.90
8002;DHT22;4046;48.774;8.732;2023-02-24T16:45:36;20.80;83.80
8002;DHT22;4046;48.774;8.732;2023-02-24T16:48:08;20.80;83.80
8002;DHT22;4046;48.774;8.732;2023-02-24T16:50:40;20.80;83.80
8002;DHT22;4046;48.774;8.732;2023-02-24T16:53:15;20.80;83.80
8002;DHT22;4046;48.774;8.732;2023-02-24T16:55:41;20.80;83.70
8002;DHT22;4046;48.774;8.732;2023-02-24T16:58:09;20.80;83.70
8002;DHT22;4046;48.774;8.732;2023-02-24T17:00:37;20.80;83.80
8002;DHT22;4046;48.774;8.732;2023-02-24T17:03:11;20.80;83.80
8002;DHT22;4046;48.774;8.732;2023-02-24T17:05:39;20.70;83.70
8002;DHT22;4046;48.774;8.732;2023-02-24T17:08:06;20.70;83.60
8002;DHT22;4046;48.774;8.732;2023-02-24T17:10:32;20.80;83.70
8002;DHT22;4046;48.774;8.732;2023-02-24T17:12:59;20.70;83.60
8002;DHT22;4046;48.774;8.732;2023-02-24T17:15:25;20.70;83.60
8002;DHT22;4046;48.774;8.732;2023-02-24T17:17:52;20.70;83.60
8002;DHT22;4046;48.774;8.732;2023-02-24T17:20:20;20.70;83.50
8002;DHT22;4046;48.774;8.732;2023-02-24T17:22:47;20.70;83.60
8002;DHT22;4046;48.774;8.732;2023-02-24T17:25:22;20.70;83.50
8002;DHT22;4046;48.774;8.732;2023-02-24T17:27:48;20.70;83.50
8002;DHT22;4046;48.774;8.732;2023-02-24T17:30:21;20.70;83.50
8002;DHT22;4046;48.774;8.732;2023-02-24T17:32:48;20.70;83.50
8002;DHT22;4046;48.774;8.732;2023-02-24T17:35:14;20.70;83.50
8002;DHT22;4046;48.774;8.732;2023-02-24T17:37:41;20.70;83.50
8002;DHT22;4046;48.774;8.732;2023-02-24T17:40:08;20.70;83.50
8002;DHT22;4046;48.774;8.732;2023-02-24T17:42:34;20.70;83.50
8002;DHT22;4046;48.774;8.732;2023-02-24T17:45:01;20.70;83.50
8002;DHT22;4046;48.774;8.732;2023-02-24T17:47:29;20.70;83.40
8002;DHT22;4046;48.774;8.732;2023-02-24T17:49:55;20.70;83.50
8002;DHT22;4046;48.774;8.732;2023-02-24T17:52:21;20.70;83.40
8002;DHT22;4046;48.774;8.732;2023-02-24T17:54:48;20.70;83.40
8002;DHT22;4046;48.774;8.732;2023-02-24T17:57:15;20.70;83.40
8002;DHT22;4046;48.774;8.732;2023-02-24T17:59:42;20.70;83.40
8002;DHT22;4046;48.774;8.732;2023-02-24T18:02:10;20.70;83.30
8002;DHT22;4046;48.774;8.732;2023-02-24T18:04:37;20.70;83.40
8002;DHT22;4046;48.774;8.732;2023-02-24T18:07:03;20.70;83.40
8002;DHT22;4046;48.774;8.732;2023-02-24T18:09:29;20.70;83.30
8002;DHT22;4046;48.774;8.732;2023-02-24T18:11:55;20.70;83.40
8002;DHT22;4046;48.774;8.732;2023-02-24T18:14:22;20.70;83.30